sensor_id;sensor_type;location;lat;lon;timestamp;temperature;humidity
837;DHT22;400;53.550;9.932;2023-07-24T00:00:16;19.00;1.00
837;DHT22;400;53.550;9.932;2023-07-24T00:02:43;19.00;1.00
837;DHT22;400;53.550;9.932;2023-07-24T00:05:10;19.00;1.00
837;DHT22;400;53.550;9.932;2023-07-24T00:07:37;19.00;1.00
837;DHT22;400;53.550;9.932;2023-07-24T00:10:04;19.00;1.00
837;DHT22;400;53.550;9.932;2023-07-24T00:12:33;19.00;1.00
837;DHT22;400;53.550;9.932;2023-07-24T00:15:00;19.00;1.00
837;DHT22;400;53.550;9.932;2023-07-24T00:17:27;19.00;1.00
837;DHT22;400;53.550;9.932;2023-07-24T00:19:54;19.00;1.00
837;DHT22;400;53.550;9.932;2023-07-24T00:22:21;18.90;1.00
837;DHT22;400;53.550;9.932;2023-07-24T00:24:48;19.00;1.00
837;DHT22;400;53.550;9.932;2023-07-24T00:27:15;19.00;1.00
837;DHT22;400;53.550;9.932;2023-07-24T00:29:43;18.90;1.00
837;DHT22;400;53.550;9.932;2023-07-24T00:32:10;18.90;1.00
837;DHT22;400;53.550;9.932;2023-07-24T00:34:37;18.90;1.00
837;DHT22;400;53.550;9.932;2023-07-24T00:37:05;18.90;1.00
837;DHT22;400;53.550;9.932;2023-07-24T00:39:32;18.90;1.00
837;DHT22;400;53.550;9.932;2023-07-24T00:41:59;18.90;1.00
837;DHT22;400;53.550;9.932;2023-07-24T00:44:26;18.80;1.00
837;DHT22;400;53.550;9.932;2023-07-24T00:46:54;18.80;6.70
837;DHT22;400;53.550;9.932;2023-07-24T00:49:21;18.90;1.00
837;DHT22;400;53.550;9.932;2023-07-24T00:51:48;18.90;1.00
837;DHT22;400;53.550;9.932;2023-07-24T00:54:16;18.90;1.00
837;DHT22;400;53.550;9.932;2023-07-24T00:56:44;19.00;1.00
837;DHT22;400;53.550;9.932;2023-07-24T00:59:12;19.00;1.00
837;DHT22;400;53.550;9.932;2023-07-24T01:01:39;19.00;1.00
837;DHT22;400;53.550;9.932;2023-07-24T01:04:09;19.00;1.00
837;DHT22;400;53.550;9.932;2023-07-24T01:06:36;18.90;1.40
837;DHT22;400;53.550;9.932;2023-07-24T01:09:03;18.90;13.90
837;DHT22;400;53.550;9.932;2023-07-24T01:11:35;18.90;9.00
837;DHT22;400;53.550;9.932;2023-07-24T01:14:09;19.00;1.00
837;DHT22;400;53.550;9.932;2023-07-24T01:16:41;18.90;9.70
837;DHT22;400;53.550;9.932;2023-07-24T01:19:12;18.90;17.00
837;DHT22;400;53.550;9.932;2023-07-24T01:21:49;18.90;24.90
837;DHT22;400;53.550;9.932;2023-07-24T01:24:30;18.90;24.30
837;DHT22;400;53.550;9.932;2023-07-24T01:27:01;18.90;21.70
837;DHT22;400;53.550;9.932;2023-07-24T01:29:27;18.90;23.70
837;DHT22;400;53.550;9.932;2023-07-24T01:31:54;18.90;27.80
837;DHT22;400;53.550;9.932;2023-07-24T01:34:23;19.00;25.10
837;DHT22;400;53.550;9.932;2023-07-24T01:36:54;19.00;21.70
837;DHT22;400;53.550;9.932;2023-07-24T01:39:23;19.00;10.00
837;DHT22;400;53.550;9.932;2023-07-24T01:41:52;19.00;30.80
837;DHT22;400;53.550;9.932;2023-07-24T01:44:24;19.00;34.60
837;DHT22;400;53.550;9.932;2023-07-24T01:46:51;19.00;19.20
837;DHT22;400;53.550;9.932;2023-07-24T01:49:17;19.00;22.60
837;DHT22;400;53.550;9.932;2023-07-24T01:51:44;19.00;22.30
837;DHT22;400;53.550;9.932;2023-07-24T01:54:11;19.00;20.80
837;DHT22;400;53.550;9.932;2023-07-24T01:56:39;19.00;14.80
837;DHT22;400;53.550;9.932;2023-07-24T01:59:06;19.00;32.10
837;DHT22;400;53.550;9.932;2023-07-24T02:01:35;19.00;20.20
837;DHT22;400;53.550;9.932;2023-07-24T02:04:02;19.00;28.30
837;DHT22;400;53.550;9.932;2023-07-24T02:06:29;19.00;28.80
837;DHT22;400;53.550;9.932;2023-07-24T02:08:59;19.10;29.70
837;DHT22;400;53.550;9.932;2023-07-24T02:11:25;19.00;19.40
837;DHT22;400;53.550;9.932;2023-07-24T02:13:52;19.00;32.70
837;DHT22;400;53.550;9.932;2023-07-24T02:16:19;19.00;41.90
837;DHT22;400;53.550;9.932;2023-07-24T02:18:47;19.10;26.40
837;DHT22;400;53.550;9.932;2023-07-24T02:21:14;19.00;24.60
837;DHT22;400;53.550;9.932;2023-07-24T02:23:41;19.00;36.30
837;DHT22;400;53.550;9.932;2023-07-24T02:26:08;19.00;26.60
837;DHT22;400;53.550;9.932;2023-07-24T02:28:35;19.00;38.40
837;DHT22;400;53.550;9.932;2023-07-24T02:31:02;19.00;57.30
837;DHT22;400;53.550;9.932;2023-07-24T02:33:29;19.00;54.50
837;DHT22;400;53.550;9.932;2023-07-24T02:35:57;19.00;46.90
837;DHT22;400;53.550;9.932;2023-07-24T02:38:24;19.00;33.20
837;DHT22;400;53.550;9.932;2023-07-24T02:40:51;19.00;69.60
837;DHT22;400;53.550;9.932;2023-07-24T02:43:18;18.90;69.80
837;DHT22;400;53.550;9.932;2023-07-24T02:45:45;18.90;75.70
837;DHT22;400;53.550;9.932;2023-07-24T02:48:11;18.90;81.10
837;DHT22;400;53.550;9.932;2023-07-24T02:50:39;18.90;74.50
837;DHT22;400;53.550;9.932;2023-07-24T02:53:08;18.80;91.80
837;DHT22;400;53.550;9.932;2023-07-24T02:55:34;18.80;94.80
837;DHT22;400;53.550;9.932;2023-07-24T02:58:02;18.70;95.20
837;DHT22;400;53.550;9.932;2023-07-24T03:00:28;18.80;97.30
837;DHT22;400;53.550;9.932;2023-07-24T03:02:55;18.70;99.90
837;DHT22;400;53.550;9.932;2023-07-24T03:05:22;18.80;99.90
837;DHT22;400;53.550;9.932;2023-07-24T03:07:49;18.70;99.90
837;DHT22;400;53.550;9.932;2023-07-24T03:10:18;18.80;98.60
837;DHT22;400;53.550;9.932;2023-07-24T03:12:44;18.80;94.50
837;DHT22;400;53.550;9.932;2023-07-24T03:15:12;18.80;82.70
837;DHT22;400;53.550;9.932;2023-07-24T03:17:41;18.90;76.30
837;DHT22;400;53.550;9.932;2023-07-24T03:20:09;18.90;57.00
837;DHT22;400;53.550;9.932;2023-07-24T03:22:36;18.90;46.20
837;DHT22;400;53.550;9.932;2023-07-24T03:25:03;18.90;45.70
837;DHT22;400;53.550;9.932;2023-07-24T03:27:31;18.90;41.50
837;DHT22;400;53.550;9.932;2023-07-24T03:29:58;18.90;35.90
837;DHT22;400;53.550;9.932;2023-07-24T03:32:25;18.90;39.10
837;DHT22;400;53.550;9.932;2023-07-24T03:34:52;18.90;34.50
837;DHT22;400;53.550;9.932;2023-07-24T03:37:19;18.90;33.70
837;DHT22;400;53.550;9.932;2023-07-24T03:39:46;18.90;18.80
837;DHT22;400;53.550;9.932;2023-07-24T03:42:27;18.80;23.50
837;DHT22;400;53.550;9.932;2023-07-24T03:44:56;18.80;26.20
837;DHT22;400;53.550;9.932;2023-07-24T03:47:24;18.80;14.50
837;DHT22;400;53.550;9.932;2023-07-24T03:49:51;18.80;28.00
837;DHT22;400;53.550;9.932;2023-07-24T03:52:18;18.70;38.40
837;DHT22;400;53.550;9.932;2023-07-24T03:54:45;18.70;55.40
837;DHT22;400;53.550;9.932;2023-07-24T03:57:13;18.70;51.90
837;DHT22;400;53.550;9.932;2023-07-24T03:59:41;18.70;71.50
837;DHT22;400;53.550;9.932;2023-07-24T04:02:13;18.70;60.80
837;DHT22;400;53.550;9.932;2023-07-24T04:04:42;18.70;58.40
837;DHT22;400;53.550;9.932;2023-07-24T04:07:09;18.60;54.70
837;DHT22;400;53.550;9.932;2023-07-24T04:09:36;18.70;38.30
837;DHT22;400;53.550;9.932;2023-07-24T04:12:04;18.70;33.40
837;DHT22;400;53.550;9.932;2023-07-24T04:14:31;18.70;30.60
837;DHT22;400;53.550;9.932;2023-07-24T04:16:58;18.70;21.90
837;DHT22;400;53.550;9.932;2023-07-24T04:19:26;18.70;14.10
837;DHT22;400;53.550;9.932;2023-07-24T04:21:53;18.70;5.30
837;DHT22;400;53.550;9.932;2023-07-24T04:24:20;18.70;3.30
837;DHT22;400;53.550;9.932;2023-07-24T04:26:47;18.70;10.80
837;DHT22;400;53.550;9.932;2023-07-24T04:29:14;18.70;1.00
837;DHT22;400;53.550;9.932;2023-07-24T04:31:41;18.80;1.00
837;DHT22;400;53.550;9.932;2023-07-24T04:34:08;18.80;1.00
837;DHT22;400;53.550;9.932;2023-07-24T04:36:36;18.90;1.00
837;DHT22;400;53.550;9.932;2023-07-24T04:39:03;18.80;1.00
837;DHT22;400;53.550;9.932;2023-07-24T04:41:30;18.80;1.00
837;DHT22;400;53.550;9.932;2023-07-24T04:43:57;18.90;1.00
837;DHT22;400;53.550;9.932;2023-07-24T04:46:24;18.90;1.00
837;DHT22;400;53.550;9.932;2023-07-24T04:48:50;19.10;1.00
837;DHT22;400;53.550;9.932;2023-07-24T04:51:17;19.10;1.00
837;DHT22;400;53.550;9.932;2023-07-24T04:53:46;19.00;1.00
837;DHT22;400;53.550;9.932;2023-07-24T04:56:13;19.00;1.00
837;DHT22;400;53.550;9.932;2023-07-24T04:58:43;19.00;1.00
837;DHT22;400;53.550;9.932;2023-07-24T05:01:14;19.00;1.00
837;DHT22;400;53.550;9.932;2023-07-24T05:03:52;19.10;1.00
837;DHT22;400;53.550;9.932;2023-07-24T05:06:22;19.10;1.00
837;DHT22;400;53.550;9.932;2023-07-24T05:08:55;19.10;1.00
837;DHT22;400;53.550;9.932;2023-07-24T05:11:22;19.10;1.00
837;DHT22;400;53.550;9.932;2023-07-24T05:13:49;19.10;1.00
837;DHT22;400;53.550;9.932;2023-07-24T05:16:15;19.20;1.00
837;DHT22;400;53.550;9.932;2023-07-24T05:18:42;19.30;1.00
837;DHT22;400;53.550;9.932;2023-07-24T05:21:09;19.50;1.00
837;DHT22;400;53.550;9.932;2023-07-24T05:23:36;19.50;1.00
837;DHT22;400;53.550;9.932;2023-07-24T05:26:08;19.60;1.00
837;DHT22;400;53.550;9.932;2023-07-24T05:28:38;19.50;1.00
837;DHT22;400;53.550;9.932;2023-07-24T05:31:08;19.60;1.00
837;DHT22;400;53.550;9.932;2023-07-24T05:33:36;19.70;1.00
837;DHT22;400;53.550;9.932;2023-07-24T05:36:05;19.60;1.00
837;DHT22;400;53.550;9.932;2023-07-24T05:38:36;19.50;1.00
837;DHT22;400;53.550;9.932;2023-07-24T05:41:18;19.50;1.00
837;DHT22;400;53.550;9.932;2023-07-24T05:43:49;19.40;1.00
837;DHT22;400;53.550;9.932;2023-07-24T05:46:20;19.50;1.00
837;DHT22;400;53.550;9.932;2023-07-24T05:48:52;19.50;1.00
837;DHT22;400;53.550;9.932;2023-07-24T05:51:25;19.60;1.00
837;DHT22;400;53.550;9.932;2023-07-24T05:53:55;19.50;1.00
837;DHT22;400;53.550;9.932;2023-07-24T05:56:23;19.50;1.00
837;DHT22;400;53.550;9.932;2023-07-24T05:58:50;19.50;1.00
837;DHT22;400;53.550;9.932;2023-07-24T06:01:17;19.50;1.00
837;DHT22;400;53.550;9.932;2023-07-24T06:03:44;19.50;1.00
837;DHT22;400;53.550;9.932;2023-07-24T06:06:14;19.40;1.00
837;DHT22;400;53.550;9.932;2023-07-24T06:08:42;19.50;1.00
837;DHT22;400;53.550;9.932;2023-07-24T06:11:09;19.60;1.00
837;DHT22;400;53.550;9.932;2023-07-24T06:13:37;19.70;1.00
837;DHT22;400;53.550;9.932;2023-07-24T06:16:07;19.80;1.00
837;DHT22;400;53.550;9.932;2023-07-24T06:18:43;19.90;1.00
837;DHT22;400;53.550;9.932;2023-07-24T06:21:13;19.80;1.00
837;DHT22;400;53.550;9.932;2023-07-24T06:23:42;19.80;1.00
837;DHT22;400;53.550;9.932;2023-07-24T06:26:10;19.80;1.00
837;DHT22;400;53.550;9.932;2023-07-24T06:28:40;19.80;1.00
837;DHT22;400;53.550;9.932;2023-07-24T06:31:09;19.60;1.00
837;DHT22;400;53.550;9.932;2023-07-24T06:33:36;19.70;1.00
837;DHT22;400;53.550;9.932;2023-07-24T06:36:08;19.70;1.00
837;DHT22;400;53.550;9.932;2023-07-24T06:38:35;19.80;1.00
837;DHT22;400;53.550;9.932;2023-07-24T06:41:02;19.90;1.00
837;DHT22;400;53.550;9.932;2023-07-24T06:43:32;20.00;1.00
837;DHT22;400;53.550;9.932;2023-07-24T06:46:00;20.10;1.00
837;DHT22;400;53.550;9.932;2023-07-24T06:48:27;20.20;1.00
837;DHT22;400;53.550;9.932;2023-07-24T06:50:54;20.30;1.00
837;DHT22;400;53.550;9.932;2023-07-24T06:53:21;20.40;1.00
837;DHT22;400;53.550;9.932;2023-07-24T06:55:48;20.50;1.00
837;DHT22;400;53.550;9.932;2023-07-24T06:58:18;20.50;1.00
837;DHT22;400;53.550;9.932;2023-07-24T07:00:45;20.50;1.00
837;DHT22;400;53.550;9.932;2023-07-24T07:03:16;20.40;1.00
837;DHT22;400;53.550;9.932;2023-07-24T07:05:43;20.10;1.00
837;DHT22;400;53.550;9.932;2023-07-24T07:08:10;20.10;1.00
837;DHT22;400;53.550;9.932;2023-07-24T07:10:37;20.20;1.00
837;DHT22;400;53.550;9.932;2023-07-24T07:13:04;20.20;1.00
837;DHT22;400;53.550;9.932;2023-07-24T07:15:32;20.10;1.00
837;DHT22;400;53.550;9.932;2023-07-24T07:17:59;20.00;1.00
837;DHT22;400;53.550;9.932;2023-07-24T07:20:27;20.00;1.00
837;DHT22;400;53.550;9.932;2023-07-24T07:22:54;20.00;1.00
837;DHT22;400;53.550;9.932;2023-07-24T07:25:21;20.10;1.00
837;DHT22;400;53.550;9.932;2023-07-24T07:27:50;20.10;1.00
837;DHT22;400;53.550;9.932;2023-07-24T07:30:17;20.00;1.00
837;DHT22;400;53.550;9.932;2023-07-24T07:32:43;19.90;1.00
837;DHT22;400;53.550;9.932;2023-07-24T07:35:11;20.10;1.00
837;DHT22;400;53.550;9.932;2023-07-24T07:37:39;20.20;1.00
837;DHT22;400;53.550;9.932;2023-07-24T07:40:07;20.30;1.00
837;DHT22;400;53.550;9.932;2023-07-24T07:42:34;20.50;1.00
837;DHT22;400;53.550;9.932;2023-07-24T07:45:01;20.50;1.00
837;DHT22;400;53.550;9.932;2023-07-24T07:47:27;20.50;1.00
837;DHT22;400;53.550;9.932;2023-07-24T07:49:55;20.50;1.00
837;DHT22;400;53.550;9.932;2023-07-24T07:52:21;20.50;1.00
837;DHT22;400;53.550;9.932;2023-07-24T07:54:51;20.60;1.00
837;DHT22;400;53.550;9.932;2023-07-24T07:57:18;20.60;1.00
837;DHT22;400;53.550;9.932;2023-07-24T07:59:45;20.70;1.00
837;DHT22;400;53.550;9.932;2023-07-24T08:02:12;20.60;1.00
837;DHT22;400;53.550;9.932;2023-07-24T08:04:38;20.70;1.00
837;DHT22;400;53.550;9.932;2023-07-24T08:07:06;20.80;1.00
837;DHT22;400;53.550;9.932;2023-07-24T08:09:33;20.70;1.00
837;DHT22;400;53.550;9.932;2023-07-24T08:12:03;20.80;1.00
837;DHT22;400;53.550;9.932;2023-07-24T08:14:30;20.70;1.00
837;DHT22;400;53.550;9.932;2023-07-24T08:16:57;20.70;1.00
837;DHT22;400;53.550;9.932;2023-07-24T08:19:28;20.70;1.00
837;DHT22;400;53.550;9.932;2023-07-24T08:21:56;20.70;1.00
837;DHT22;400;53.550;9.932;2023-07-24T08:24:25;20.90;1.00
837;DHT22;400;53.550;9.932;2023-07-24T08:26:51;20.80;1.00
837;DHT22;400;53.550;9.932;2023-07-24T08:29:21;20.80;1.00
837;DHT22;400;53.550;9.932;2023-07-24T08:31:48;20.90;1.00
837;DHT22;400;53.550;9.932;2023-07-24T08:34:15;20.90;1.00
837;DHT22;400;53.550;9.932;2023-07-24T08:36:41;21.00;1.00
837;DHT22;400;53.550;9.932;2023-07-24T08:39:08;21.20;1.00
837;DHT22;400;53.550;9.932;2023-07-24T08:41:36;21.40;1.00
837;DHT22;400;53.550;9.932;2023-07-24T08:44:04;21.30;1.00
837;DHT22;400;53.550;9.932;2023-07-24T08:46:35;21.10;1.00
837;DHT22;400;53.550;9.932;2023-07-24T08:49:04;21.10;1.00
837;DHT22;400;53.550;9.932;2023-07-24T08:51:34;21.30;1.00
837;DHT22;400;53.550;9.932;2023-07-24T08:54:02;21.50;1.00
837;DHT22;400;53.550;9.932;2023-07-24T08:56:29;21.60;1.00
837;DHT22;400;53.550;9.932;2023-07-24T08:58:56;21.80;1.00
837;DHT22;400;53.550;9.932;2023-07-24T09:01:24;21.50;1.00
837;DHT22;400;53.550;9.932;2023-07-24T09:03:53;21.40;1.00
837;DHT22;400;53.550;9.932;2023-07-24T09:06:20;21.60;1.00
837;DHT22;400;53.550;9.932;2023-07-24T09:08:47;21.70;1.00
837;DHT22;400;53.550;9.932;2023-07-24T09:11:14;21.70;1.00
837;DHT22;400;53.550;9.932;2023-07-24T09:13:43;21.60;1.00
837;DHT22;400;53.550;9.932;2023-07-24T09:16:23;21.60;1.00
837;DHT22;400;53.550;9.932;2023-07-24T09:18:56;21.50;1.00
837;DHT22;400;53.550;9.932;2023-07-24T09:21:30;21.30;1.00
837;DHT22;400;53.550;9.932;2023-07-24T09:24:09;21.60;1.00
837;DHT22;400;53.550;9.932;2023-07-24T09:26:47;21.70;1.00
837;DHT22;400;53.550;9.932;2023-07-24T09:29:14;21.90;1.00
837;DHT22;400;53.550;9.932;2023-07-24T09:31:41;22.10;1.00
837;DHT22;400;53.550;9.932;2023-07-24T09:34:16;22.10;1.00
837;DHT22;400;53.550;9.932;2023-07-24T09:36:43;22.20;1.00
837;DHT22;400;53.550;9.932;2023-07-24T09:39:10;21.80;1.00
837;DHT22;400;53.550;9.932;2023-07-24T09:41:38;21.70;1.00
837;DHT22;400;53.550;9.932;2023-07-24T09:44:06;21.90;1.00
837;DHT22;400;53.550;9.932;2023-07-24T09:46:32;22.10;1.00
837;DHT22;400;53.550;9.932;2023-07-24T09:48:59;22.10;1.00
837;DHT22;400;53.550;9.932;2023-07-24T09:51:29;21.90;1.00
837;DHT22;400;53.550;9.932;2023-07-24T09:54:03;21.70;1.00
837;DHT22;400;53.550;9.932;2023-07-24T09:56:34;21.70;1.00
837;DHT22;400;53.550;9.932;2023-07-24T09:59:03;21.80;1.00
837;DHT22;400;53.550;9.932;2023-07-24T10:01:32;22.10;1.00
837;DHT22;400;53.550;9.932;2023-07-24T10:03:59;22.30;1.00
837;DHT22;400;53.550;9.932;2023-07-24T10:06:29;22.30;1.00
837;DHT22;400;53.550;9.932;2023-07-24T10:08:58;22.20;1.00
837;DHT22;400;53.550;9.932;2023-07-24T10:11:27;22.10;1.00
837;DHT22;400;53.550;9.932;2023-07-24T10:13:55;22.30;1.00
837;DHT22;400;53.550;9.932;2023-07-24T10:16:22;22.50;1.00
837;DHT22;400;53.550;9.932;2023-07-24T10:18:49;22.70;1.00
837;DHT22;400;53.550;9.932;2023-07-24T10:21:16;22.60;1.00
837;DHT22;400;53.550;9.932;2023-07-24T10:23:48;22.30;1.00
837;DHT22;400;53.550;9.932;2023-07-24T10:26:25;22.20;1.00
837;DHT22;400;53.550;9.932;2023-07-24T10:28:54;22.30;1.00
837;DHT22;400;53.550;9.932;2023-07-24T10:31:23;22.30;1.00
837;DHT22;400;53.550;9.932;2023-07-24T10:33:52;22.30;1.00
837;DHT22;400;53.550;9.932;2023-07-24T10:36:20;22.30;1.00
837;DHT22;400;53.550;9.932;2023-07-24T10:38:54;22.50;1.00
837;DHT22;400;53.550;9.932;2023-07-24T10:41:22;22.40;1.00
837;DHT22;400;53.550;9.932;2023-07-24T10:43:50;22.30;1.00
837;DHT22;400;53.550;9.932;2023-07-24T10:46:21;22.20;1.00
837;DHT22;400;53.550;9.932;2023-07-24T10:48:51;22.30;1.00
837;DHT22;400;53.550;9.932;2023-07-24T10:51:18;22.30;1.00
837;DHT22;400;53.550;9.932;2023-07-24T10:53:46;22.30;1.00
837;DHT22;400;53.550;9.932;2023-07-24T10:56:18;22.20;1.00
837;DHT22;400;53.550;9.932;2023-07-24T10:58:50;22.30;1.00
837;DHT22;400;53.550;9.932;2023-07-24T11:01:19;22.40;1.00
837;DHT22;400;53.550;9.932;2023-07-24T11:03:46;22.20;1.00
837;DHT22;400;53.550;9.932;2023-07-24T11:06:15;22.40;1.00
837;DHT22;400;53.550;9.932;2023-07-24T11:08:50;22.50;1.00
837;DHT22;400;53.550;9.932;2023-07-24T11:11:18;22.50;1.00
837;DHT22;400;53.550;9.932;2023-07-24T11:13:45;22.60;1.00
837;DHT22;400;53.550;9.932;2023-07-24T11:16:13;22.70;1.00
837;DHT22;400;53.550;9.932;2023-07-24T11:18:45;22.90;1.00
837;DHT22;400;53.550;9.932;2023-07-24T11:21:14;23.10;1.00
837;DHT22;400;53.550;9.932;2023-07-24T11:23:48;23.00;1.00
837;DHT22;400;53.550;9.932;2023-07-24T11:26:20;23.00;1.00
837;DHT22;400;53.550;9.932;2023-07-24T11:28:48;23.20;1.00
837;DHT22;400;53.550;9.932;2023-07-24T11:31:15;22.90;1.00
837;DHT22;400;53.550;9.932;2023-07-24T11:33:46;22.80;1.00
837;DHT22;400;53.550;9.932;2023-07-24T11:36:13;22.80;1.00
837;DHT22;400;53.550;9.932;2023-07-24T11:38:40;22.70;1.00
837;DHT22;400;53.550;9.932;2023-07-24T11:41:08;23.00;1.00
837;DHT22;400;53.550;9.932;2023-07-24T11:43:45;22.90;1.00
837;DHT22;400;53.550;9.932;2023-07-24T11:46:22;23.10;1.00
837;DHT22;400;53.550;9.932;2023-07-24T11:48:51;23.10;1.00
837;DHT22;400;53.550;9.932;2023-07-24T11:51:19;23.40;1.00
837;DHT22;400;53.550;9.932;2023-07-24T11:53:46;23.90;1.00
837;DHT22;400;53.550;9.932;2023-07-24T11:56:14;24.30;1.00
837;DHT22;400;53.550;9.932;2023-07-24T11:58:42;24.20;1.00
837;DHT22;400;53.550;9.932;2023-07-24T12:01:11;24.20;1.00
837;DHT22;400;53.550;9.932;2023-07-24T12:03:39;23.90;1.00
837;DHT22;400;53.550;9.932;2023-07-24T12:06:14;24.10;1.00
837;DHT22;400;53.550;9.932;2023-07-24T12:08:43;24.30;1.00
837;DHT22;400;53.550;9.932;2023-07-24T12:11:20;24.50;1.00
837;DHT22;400;53.550;9.932;2023-07-24T12:13:53;24.60;1.00
837;DHT22;400;53.550;9.932;2023-07-24T12:16:25;24.40;1.00
837;DHT22;400;53.550;9.932;2023-07-24T12:18:58;24.40;1.00
837;DHT22;400;53.550;9.932;2023-07-24T12:21:31;24.40;1.00
837;DHT22;400;53.550;9.932;2023-07-24T12:24:04;24.30;1.00
837;DHT22;400;53.550;9.932;2023-07-24T12:26:35;24.10;1.00
837;DHT22;400;53.550;9.932;2023-07-24T12:29:08;24.30;1.00
837;DHT22;400;53.550;9.932;2023-07-24T12:31:38;24.50;1.00
837;DHT22;400;53.550;9.932;2023-07-24T12:34:06;24.80;1.00
837;DHT22;400;53.550;9.932;2023-07-24T12:36:33;24.80;1.00
837;DHT22;400;53.550;9.932;2023-07-24T12:39:00;24.80;1.00
837;DHT22;400;53.550;9.932;2023-07-24T12:41:27;24.70;1.00
837;DHT22;400;53.550;9.932;2023-07-24T12:43:54;24.60;1.00
837;DHT22;400;53.550;9.932;2023-07-24T12:46:26;24.60;1.00
837;DHT22;400;53.550;9.932;2023-07-24T12:48:58;24.60;1.00
837;DHT22;400;53.550;9.932;2023-07-24T12:51:27;24.30;1.00
837;DHT22;400;53.550;9.932;2023-07-24T12:53:55;24.60;1.00
837;DHT22;400;53.550;9.932;2023-07-24T12:56:21;24.80;1.00
837;DHT22;400;53.550;9.932;2023-07-24T12:58:49;24.70;1.00
837;DHT22;400;53.550;9.932;2023-07-24T13:01:15;24.80;1.00
837;DHT22;400;53.550;9.932;2023-07-24T13:03:44;24.90;1.00
837;DHT22;400;53.550;9.932;2023-07-24T13:06:13;24.80;1.00
837;DHT22;400;53.550;9.932;2023-07-24T13:08:44;24.70;1.00
837;DHT22;400;53.550;9.932;2023-07-24T13:11:13;24.40;1.00
837;DHT22;400;53.550;9.932;2023-07-24T13:13:40;24.30;1.00
837;DHT22;400;53.550;9.932;2023-07-24T13:16:08;24.80;1.00
837;DHT22;400;53.550;9.932;2023-07-24T13:18:35;24.90;1.00
837;DHT22;400;53.550;9.932;2023-07-24T13:21:04;25.10;1.00
837;DHT22;400;53.550;9.932;2023-07-24T13:23:33;25.20;1.00
837;DHT22;400;53.550;9.932;2023-07-24T13:26:00;25.20;1.00
837;DHT22;400;53.550;9.932;2023-07-24T13:28:28;25.40;1.00
837;DHT22;400;53.550;9.932;2023-07-24T13:30:55;25.20;1.00
837;DHT22;400;53.550;9.932;2023-07-24T13:33:23;25.50;1.00
837;DHT22;400;53.550;9.932;2023-07-24T13:35:50;25.10;1.00
837;DHT22;400;53.550;9.932;2023-07-24T13:38:18;25.10;1.00
837;DHT22;400;53.550;9.932;2023-07-24T13:40:46;25.20;1.00
837;DHT22;400;53.550;9.932;2023-07-24T13:43:13;25.10;1.00
837;DHT22;400;53.550;9.932;2023-07-24T13:45:43;25.00;1.00
837;DHT22;400;53.550;9.932;2023-07-24T13:48:16;25.20;1.00
837;DHT22;400;53.550;9.932;2023-07-24T13:50:47;25.10;1.00
837;DHT22;400;53.550;9.932;2023-07-24T13:53:18;25.20;1.00
837;DHT22;400;53.550;9.932;2023-07-24T13:55:45;25.30;1.00
837;DHT22;400;53.550;9.932;2023-07-24T13:58:15;25.40;1.00
837;DHT22;400;53.550;9.932;2023-07-24T14:00:47;25.50;1.00
837;DHT22;400;53.550;9.932;2023-07-24T14:03:16;25.20;1.00
837;DHT22;400;53.550;9.932;2023-07-24T14:05:45;25.20;1.00
837;DHT22;400;53.550;9.932;2023-07-24T14:08:20;25.30;1.00
837;DHT22;400;53.550;9.932;2023-07-24T14:10:52;25.50;1.00
837;DHT22;400;53.550;9.932;2023-07-24T14:13:23;25.60;1.00
837;DHT22;400;53.550;9.932;2023-07-24T14:15:55;25.30;1.00
837;DHT22;400;53.550;9.932;2023-07-24T14:18:25;25.00;1.00
837;DHT22;400;53.550;9.932;2023-07-24T14:20:52;25.10;1.00
837;DHT22;400;53.550;9.932;2023-07-24T14:23:22;25.30;1.00
837;DHT22;400;53.550;9.932;2023-07-24T14:25:51;25.30;1.00
837;DHT22;400;53.550;9.932;2023-07-24T14:28:21;25.20;1.00
837;DHT22;400;53.550;9.932;2023-07-24T14:30:52;25.00;1.00
837;DHT22;400;53.550;9.932;2023-07-24T14:33:21;25.20;1.00
837;DHT22;400;53.550;9.932;2023-07-24T14:35:49;25.30;1.00
837;DHT22;400;53.550;9.932;2023-07-24T14:38:16;25.30;1.00
837;DHT22;400;53.550;9.932;2023-07-24T14:40:45;25.30;1.00
837;DHT22;400;53.550;9.932;2023-07-24T14:43:12;25.30;1.00
837;DHT22;400;53.550;9.932;2023-07-24T14:45:40;25.20;1.00
837;DHT22;400;53.550;9.932;2023-07-24T14:48:13;25.20;1.00
837;DHT22;400;53.550;9.932;2023-07-24T14:50:45;25.10;1.00
837;DHT22;400;53.550;9.932;2023-07-24T14:53:15;25.00;1.00
837;DHT22;400;53.550;9.932;2023-07-24T14:55:47;25.00;1.00
837;DHT22;400;53.550;9.932;2023-07-24T14:58:17;25.00;1.00
837;DHT22;400;53.550;9.932;2023-07-24T15:00:48;24.90;1.00
837;DHT22;400;53.550;9.932;2023-07-24T15:03:17;24.90;1.00
837;DHT22;400;53.550;9.932;2023-07-24T15:05:45;24.80;1.00
837;DHT22;400;53.550;9.932;2023-07-24T15:08:15;24.90;1.00
837;DHT22;400;53.550;9.932;2023-07-24T15:10:45;24.70;1.00
837;DHT22;400;53.550;9.932;2023-07-24T15:13:12;24.80;1.00
837;DHT22;400;53.550;9.932;2023-07-24T15:15:39;24.70;1.00
837;DHT22;400;53.550;9.932;2023-07-24T15:18:06;24.60;1.00
837;DHT22;400;53.550;9.932;2023-07-24T15:20:35;24.70;1.00
837;DHT22;400;53.550;9.932;2023-07-24T15:23:02;24.70;1.00
837;DHT22;400;53.550;9.932;2023-07-24T15:25:29;24.60;1.00
837;DHT22;400;53.550;9.932;2023-07-24T15:27:57;24.50;1.00
837;DHT22;400;53.550;9.932;2023-07-24T15:30:24;24.60;1.00
837;DHT22;400;53.550;9.932;2023-07-24T15:32:52;24.30;1.00
837;DHT22;400;53.550;9.932;2023-07-24T15:35:21;22.80;1.00
837;DHT22;400;53.550;9.932;2023-07-24T15:37:51;22.40;1.00
837;DHT22;400;53.550;9.932;2023-07-24T15:40:21;21.70;1.00
837;DHT22;400;53.550;9.932;2023-07-24T15:42:48;20.80;1.00
837;DHT22;400;53.550;9.932;2023-07-24T15:45:16;20.60;1.00
837;DHT22;400;53.550;9.932;2023-07-24T15:47:43;20.60;1.00
837;DHT22;400;53.550;9.932;2023-07-24T15:50:10;20.60;1.00
837;DHT22;400;53.550;9.932;2023-07-24T15:52:39;20.70;1.00
837;DHT22;400;53.550;9.932;2023-07-24T15:55:09;20.70;1.00
837;DHT22;400;53.550;9.932;2023-07-24T15:57:39;20.60;1.00
837;DHT22;400;53.550;9.932;2023-07-24T16:00:11;20.30;1.00
837;DHT22;400;53.550;9.932;2023-07-24T16:02:40;20.50;1.00
837;DHT22;400;53.550;9.932;2023-07-24T16:05:17;20.30;1.00
837;DHT22;400;53.550;9.932;2023-07-24T16:07:45;20.30;1.00
837;DHT22;400;53.550;9.932;2023-07-24T16:10:12;20.30;1.00
837;DHT22;400;53.550;9.932;2023-07-24T16:12:39;20.30;1.00
837;DHT22;400;53.550;9.932;2023-07-24T16:15:07;20.40;1.00
837;DHT22;400;53.550;9.932;2023-07-24T16:17:34;20.30;1.00
837;DHT22;400;53.550;9.932;2023-07-24T16:20:03;20.30;1.00
837;DHT22;400;53.550;9.932;2023-07-24T16:22:31;20.40;1.00
837;DHT22;400;53.550;9.932;2023-07-24T16:25:00;20.30;1.00
837;DHT22;400;53.550;9.932;2023-07-24T16:27:27;20.40;1.00
837;DHT22;400;53.550;9.932;2023-07-24T16:29:54;20.30;1.00
837;DHT22;400;53.550;9.932;2023-07-24T16:32:20;20.30;1.00
837;DHT22;400;53.550;9.932;2023-07-24T16:34:47;19.90;1.00
837;DHT22;400;53.550;9.932;2023-07-24T16:37:16;20.10;1.00
837;DHT22;400;53.550;9.932;2023-07-24T16:39:42;20.20;1.00
837;DHT22;400;53.550;9.932;2023-07-24T16:42:09;19.90;1.00
837;DHT22;400;53.550;9.932;2023-07-24T16:44:36;19.80;1.00
837;DHT22;400;53.550;9.932;2023-07-24T16:47:03;19.60;1.00
837;DHT22;400;53.550;9.932;2023-07-24T16:49:31;19.60;1.00
837;DHT22;400;53.550;9.932;2023-07-24T16:51:58;19.50;1.00
837;DHT22;400;53.550;9.932;2023-07-24T16:54:29;19.40;1.00
837;DHT22;400;53.550;9.932;2023-07-24T16:56:56;19.30;1.00